sensor_id;sensor_type;location;lat;lon;timestamp;pressure;altitude;pressure_sealevel;temperature;humidity
21185;BME280;18176;49.502;11.754;2022-08-01T00:03:41;96790.63;;;21.07;70.28
21185;BME280;18176;49.502;11.754;2022-08-01T00:07:39;96810.19;;;21.12;70.98
21185;BME280;18176;49.502;11.754;2022-08-01T00:11:36;96810.19;;;21.12;70.92
21185;BME280;18176;49.502;11.754;2022-08-01T00:15:33;96804.19;;;21.02;71.23
21185;BME280;18176;49.502;11.754;2022-08-01T00:19:31;96805.56;;;20.99;71.38
21185;BME280;18176;49.502;11.754;2022-08-01T00:23:28;96798.66;;;20.93;71.71
21185;BME280;18176;49.502;11.754;2022-08-01T00:27:25;96791.78;;;20.87;71.27
21185;BME280;18176;49.502;11.754;2022-08-01T00:31:22;96798.88;;;20.83;72.23
21185;BME280;18176;49.502;11.754;2022-08-01T00:35:19;96793.00;;;20.67;72.97
21185;BME280;18176;49.502;11.754;2022-08-01T00:39:16;96789.69;;;20.70;72.42
21185;BME280;18176;49.502;11.754;2022-08-01T00:43:14;96793.06;;;20.49;73.13
21185;BME280;18176;49.502;11.754;2022-08-01T00:47:11;96808.47;;;20.43;74.00
21185;BME280;18176;49.502;11.754;2022-08-01T00:51:08;96782.84;;;20.13;74.74
21185;BME280;18176;49.502;11.754;2022-08-01T00:55:06;96788.81;;;20.10;75.62
21185;BME280;18176;49.502;11.754;2022-08-01T00:59:11;96786.78;;;20.02;75.37
21185;BME280;18176;49.502;11.754;2022-08-01T01:03:10;96784.56;;;19.91;76.26
21185;BME280;18176;49.502;11.754;2022-08-01T01:07:33;96808.03;;;19.85;76.26
21185;BME280;18176;49.502;11.754;2022-08-01T01:16:22;96792.69;;;19.67;76.51
21185;BME280;18176;49.502;11.754;2022-08-01T01:20:27;96792.75;;;19.62;76.92
21185;BME280;18176;49.502;11.754;2022-08-01T01:24:47;96801.25;;;19.69;76.87
21185;BME280;18176;49.502;11.754;2022-08-01T01:29:21;96806.78;;;19.59;77.20
21185;BME280;18176;49.502;11.754;2022-08-01T01:33:22;96808.88;;;19.62;77.28
21185;BME280;18176;49.502;11.754;2022-08-01T01:37:23;96815.88;;;19.63;77.78
21185;BME280;18176;49.502;11.754;2022-08-01T01:41:23;96815.63;;;19.59;77.73
21185;BME280;18176;49.502;11.754;2022-08-01T01:45:23;96808.66;;;19.40;78.17
21185;BME280;18176;49.502;11.754;2022-08-01T01:49:25;96806.66;;;19.27;78.62
21185;BME280;18176;49.502;11.754;2022-08-01T01:53:26;96776.72;;;19.15;78.48
21185;BME280;18176;49.502;11.754;2022-08-01T01:57:27;96797.03;;;19.21;77.52
21185;BME280;18176;49.502;11.754;2022-08-01T02:01:28;96812.41;;;19.39;76.17
21185;BME280;18176;49.502;11.754;2022-08-01T02:05:48;96811.78;;;19.47;75.21
21185;BME280;18176;49.502;11.754;2022-08-01T02:09:47;96826.47;;;19.54;74.44
21185;BME280;18176;49.502;11.754;2022-08-01T02:14:00;96796.34;;;19.34;73.88
21185;BME280;18176;49.502;11.754;2022-08-01T02:18:00;96829.81;;;19.65;73.21
21185;BME280;18176;49.502;11.754;2022-08-01T02:22:10;96823.06;;;19.68;72.25
21185;BME280;18176;49.502;11.754;2022-08-01T02:26:13;96824.16;;;19.85;70.83
21185;BME280;18176;49.502;11.754;2022-08-01T02:30:13;96837.41;;;19.82;70.66
21185;BME280;18176;49.502;11.754;2022-08-01T02:34:17;96848.16;;;20.00;70.41
21185;BME280;18176;49.502;11.754;2022-08-01T02:38:16;96837.97;;;19.97;69.86
21185;BME280;18176;49.502;11.754;2022-08-01T02:42:15;96845.22;;;20.15;69.01
21185;BME280;18176;49.502;11.754;2022-08-01T02:46:25;96834.03;;;20.08;69.17
21185;BME280;18176;49.502;11.754;2022-08-01T02:50:24;96835.78;;;19.99;69.04
21185;BME280;18176;49.502;11.754;2022-08-01T02:54:25;96847.97;;;20.10;68.89
21185;BME280;18176;49.502;11.754;2022-08-01T02:58:23;96857.81;;;20.01;68.82
21185;BME280;18176;49.502;11.754;2022-08-01T03:02:27;96846.41;;;20.09;68.44
21185;BME280;18176;49.502;11.754;2022-08-01T03:06:26;96845.78;;;20.12;68.07
21185;BME280;18176;49.502;11.754;2022-08-01T03:10:30;96852.78;;;20.13;67.82
21185;BME280;18176;49.502;11.754;2022-08-01T03:14:30;96865.16;;;20.14;68.13
21185;BME280;18176;49.502;11.754;2022-08-01T03:18:31;96849.16;;;20.04;67.75
21185;BME280;18176;49.502;11.754;2022-08-01T03:22:30;96852.94;;;20.03;67.53
21185;BME280;18176;49.502;11.754;2022-08-01T03:26:32;96856.41;;;20.04;67.67
21185;BME280;18176;49.502;11.754;2022-08-01T03:30:33;96875.13;;;19.95;68.65
21185;BME280;18176;49.502;11.754;2022-08-01T03:34:32;96863.78;;;19.80;68.93
21185;BME280;18176;49.502;11.754;2022-08-01T03:38:32;96871.53;;;19.81;68.71
21185;BME280;18176;49.502;11.754;2022-08-01T03:42:37;96877.94;;;19.85;68.81
21185;BME280;18176;49.502;11.754;2022-08-01T03:46:46;96886.94;;;19.94;69.03
21185;BME280;18176;49.502;11.754;2022-08-01T03:50:49;96878.53;;;19.82;68.94
21185;BME280;18176;49.502;11.754;2022-08-01T03:54:49;96895.22;;;19.79;69.33
21185;BME280;18176;49.502;11.754;2022-08-01T03:58:49;96890.75;;;19.51;70.75
21185;BME280;18176;49.502;11.754;2022-08-01T04:02:48;96892.41;;;19.47;71.07
21185;BME280;18176;49.502;11.754;2022-08-01T04:06:46;96901.44;;;19.56;70.87
21185;BME280;18176;49.502;11.754;2022-08-01T04:10:44;96898.59;;;19.47;71.26
21185;BME280;18176;49.502;11.754;2022-08-01T04:14:46;96901.00;;;19.49;71.37
21185;BME280;18176;49.502;11.754;2022-08-01T04:18:43;96917.00;;;19.59;70.65
21185;BME280;18176;49.502;11.754;2022-08-01T04:22:41;96901.16;;;19.34;71.82
21185;BME280;18176;49.502;11.754;2022-08-01T04:26:41;96930.00;;;19.52;71.42
21185;BME280;18176;49.502;11.754;2022-08-01T04:30:41;96918.59;;;19.60;71.63
21185;BME280;18176;49.502;11.754;2022-08-01T04:34:41;96913.22;;;19.60;70.85
21185;BME280;18176;49.502;11.754;2022-08-01T04:38:42;96911.84;;;19.63;71.30
21185;BME280;18176;49.502;11.754;2022-08-01T04:42:42;96908.41;;;19.57;71.65
21185;BME280;18176;49.502;11.754;2022-08-01T04:46:43;96925.84;;;19.59;72.07
21185;BME280;18176;49.502;11.754;2022-08-01T04:50:41;96944.44;;;19.80;71.49
21185;BME280;18176;49.502;11.754;2022-08-01T04:54:38;96923.25;;;19.73;71.75
21185;BME280;18176;49.502;11.754;2022-08-01T04:58:35;96938.56;;;19.96;71.42
21185;BME280;18176;49.502;11.754;2022-08-01T05:02:32;96945.53;;;20.40;70.06
21185;BME280;18176;49.502;11.754;2022-08-01T05:06:29;96930.81;;;20.51;69.67
21185;BME280;18176;49.502;11.754;2022-08-01T05:10:27;96940.84;;;20.64;69.07
21185;BME280;18176;49.502;11.754;2022-08-01T05:14:28;96960.81;;;20.63;69.83
21185;BME280;18176;49.502;11.754;2022-08-01T05:18:28;96956.50;;;20.62;70.22
21185;BME280;18176;49.502;11.754;2022-08-01T05:22:26;96961.88;;;20.62;69.83
21185;BME280;18176;49.502;11.754;2022-08-01T05:26:24;96953.66;;;20.72;70.36
21185;BME280;18176;49.502;11.754;2022-08-01T05:30:22;96959.22;;;20.94;69.77
21185;BME280;18176;49.502;11.754;2022-08-01T05:34:20;96963.41;;;21.32;69.15
21185;BME280;18176;49.502;11.754;2022-08-01T05:38:17;96963.34;;;21.64;67.27
21185;BME280;18176;49.502;11.754;2022-08-01T05:42:14;96960.56;;;21.97;65.63
21185;BME280;18176;49.502;11.754;2022-08-01T05:46:11;96938.75;;;22.20;64.52
21185;BME280;18176;49.502;11.754;2022-08-01T05:50:09;96947.25;;;22.50;63.81
21185;BME280;18176;49.502;11.754;2022-08-01T05:54:06;96950.25;;;22.62;62.98
21185;BME280;18176;49.502;11.754;2022-08-01T05:58:03;96947.63;;;22.92;62.93
21185;BME280;18176;49.502;11.754;2022-08-01T06:02:01;96969.25;;;23.23;62.05
21185;BME280;18176;49.502;11.754;2022-08-01T06:05:58;96963.91;;;23.32;60.78
21185;BME280;18176;49.502;11.754;2022-08-01T06:09:55;96968.97;;;23.25;60.98
21185;BME280;18176;49.502;11.754;2022-08-01T06:13:53;96974.00;;;23.40;60.73
21185;BME280;18176;49.502;11.754;2022-08-01T06:17:50;96961.34;;;23.27;61.49
21185;BME280;18176;49.502;11.754;2022-08-01T06:21:47;96967.84;;;23.48;61.11
21185;BME280;18176;49.502;11.754;2022-08-01T06:25:44;96970.94;;;23.63;61.25
21185;BME280;18176;49.502;11.754;2022-08-01T06:29:41;96979.91;;;23.81;60.12
21185;BME280;18176;49.502;11.754;2022-08-01T06:33:49;96974.09;;;23.96;60.10
21185;BME280;18176;49.502;11.754;2022-08-01T06:37:47;96955.56;;;23.81;60.20
21185;BME280;18176;49.502;11.754;2022-08-01T06:41:44;96973.84;;;23.76;60.07
21185;BME280;18176;49.502;11.754;2022-08-01T06:45:43;96981.72;;;23.94;60.20
21185;BME280;18176;49.502;11.754;2022-08-01T06:49:42;96976.56;;;23.84;60.11
21185;BME280;18176;49.502;11.754;2022-08-01T06:53:39;96972.69;;;23.68;60.40
21185;BME280;18176;49.502;11.754;2022-08-01T06:57:53;96991.44;;;23.64;61.58
21185;BME280;18176;49.502;11.754;2022-08-01T07:01:50;96999.31;;;23.83;61.16
21185;BME280;18176;49.502;11.754;2022-08-01T07:05:47;96963.50;;;23.69;61.14
21185;BME280;18176;49.502;11.754;2022-08-01T07:09:44;96982.94;;;23.88;61.25
21185;BME280;18176;49.502;11.754;2022-08-01T07:13:44;96982.69;;;23.98;60.94
21185;BME280;18176;49.502;11.754;2022-08-01T07:17:42;96988.56;;;24.00;61.29
21185;BME280;18176;49.502;11.754;2022-08-01T07:21:40;96992.69;;;24.63;59.81
21185;BME280;18176;49.502;11.754;2022-08-01T07:25:41;96990.00;;;25.05;57.75
21185;BME280;18176;49.502;11.754;2022-08-01T07:29:48;96999.25;;;25.13;57.50
21185;BME280;18176;49.502;11.754;2022-08-01T07:33:45;97000.34;;;25.12;57.55
21185;BME280;18176;49.502;11.754;2022-08-01T07:37:45;97013.25;;;25.24;57.12
21185;BME280;18176;49.502;11.754;2022-08-01T07:41:45;96997.94;;;25.19;57.57
21185;BME280;18176;49.502;11.754;2022-08-01T07:46:03;97002.25;;;25.29;56.96
21185;BME280;18176;49.502;11.754;2022-08-01T07:50:01;97019.44;;;25.58;56.57
21185;BME280;18176;49.502;11.754;2022-08-01T07:53:58;97006.22;;;25.31;57.40
21185;BME280;18176;49.502;11.754;2022-08-01T07:57:56;96991.84;;;25.56;56.60
21185;BME280;18176;49.502;11.754;2022-08-01T08:01:53;96995.00;;;26.05;55.52
21185;BME280;18176;49.502;11.754;2022-08-01T08:05:50;97017.13;;;26.24;54.41
21185;BME280;18176;49.502;11.754;2022-08-01T08:09:56;97018.75;;;26.16;54.51
21185;BME280;18176;49.502;11.754;2022-08-01T08:13:53;97005.88;;;26.34;54.13
21185;BME280;18176;49.502;11.754;2022-08-01T08:17:50;97016.38;;;26.15;54.44
21185;BME280;18176;49.502;11.754;2022-08-01T08:21:51;97019.38;;;26.51;54.68
21185;BME280;18176;49.502;11.754;2022-08-01T08:25:48;97011.84;;;26.98;52.99
21185;BME280;18176;49.502;11.754;2022-08-01T08:29:45;97009.13;;;27.31;51.42
21185;BME280;18176;49.502;11.754;2022-08-01T08:33:45;97013.25;;;27.81;50.85
21185;BME280;18176;49.502;11.754;2022-08-01T08:37:42;97009.97;;;28.48;49.02
21185;BME280;18176;49.502;11.754;2022-08-01T08:41:43;97016.59;;;28.11;48.87
21185;BME280;18176;49.502;11.754;2022-08-01T08:45:45;96991.47;;;27.81;48.54
21185;BME280;18176;49.502;11.754;2022-08-01T08:49:56;96997.91;;;27.77;49.19
21185;BME280;18176;49.502;11.754;2022-08-01T08:53:56;97010.06;;;27.79;48.55
21185;BME280;18176;49.502;11.754;2022-08-01T08:57:54;97009.06;;;27.96;48.56
21185;BME280;18176;49.502;11.754;2022-08-01T09:01:52;97014.06;;;29.06;46.27
21185;BME280;18176;49.502;11.754;2022-08-01T09:05:49;97021.25;;;30.29;43.35
21185;BME280;18176;49.502;11.754;2022-08-01T09:09:47;96984.66;;;30.68;41.41
21185;BME280;18176;49.502;11.754;2022-08-01T09:14:09;97019.34;;;30.14;41.58
21185;BME280;18176;49.502;11.754;2022-08-01T09:18:07;97018.44;;;30.41;41.73
21185;BME280;18176;49.502;11.754;2022-08-01T09:22:11;97009.81;;;30.39;41.61
21185;BME280;18176;49.502;11.754;2022-08-01T09:26:10;97009.69;;;31.62;41.49
21185;BME280;18176;49.502;11.754;2022-08-01T09:34:08;97016.13;;;31.12;39.32
21185;BME280;18176;49.502;11.754;2022-08-01T09:38:24;96994.59;;;30.26;41.58
21185;BME280;18176;49.502;11.754;2022-08-01T09:42:26;97005.91;;;30.40;41.73
21185;BME280;18176;49.502;11.754;2022-08-01T09:46:25;97011.75;;;29.92;42.74
21185;BME280;18176;49.502;11.754;2022-08-01T09:50:42;97025.56;;;29.40;43.35
21185;BME280;18176;49.502;11.754;2022-08-01T09:54:42;96995.91;;;30.82;40.62
21185;BME280;18176;49.502;11.754;2022-08-01T09:58:57;97021.16;;;32.13;37.17
21185;BME280;18176;49.502;11.754;2022-08-01T10:02:59;97006.53;;;31.83;37.91
21185;BME280;18176;49.502;11.754;2022-08-01T10:07:07;97008.22;;;30.73;39.45
21185;BME280;18176;49.502;11.754;2022-08-01T10:11:09;97010.81;;;29.01;42.91
21185;BME280;18176;49.502;11.754;2022-08-01T10:15:09;97011.91;;;28.48;44.41
21185;BME280;18176;49.502;11.754;2022-08-01T10:19:07;96973.47;;;27.11;45.76
21185;BME280;18176;49.502;11.754;2022-08-01T10:23:11;97011.81;;;26.57;48.70
21185;BME280;18176;49.502;11.754;2022-08-01T10:27:10;97011.13;;;26.39;49.77
21185;BME280;18176;49.502;11.754;2022-08-01T10:31:08;97004.25;;;26.12;49.81
21185;BME280;18176;49.502;11.754;2022-08-01T10:35:10;97011.19;;;26.80;49.46
21185;BME280;18176;49.502;11.754;2022-08-01T10:39:34;96992.81;;;27.75;46.71
21185;BME280;18176;49.502;11.754;2022-08-01T10:43:32;97002.03;;;28.43;45.73
21185;BME280;18176;49.502;11.754;2022-08-01T10:48:08;97000.09;;;30.10;41.49
21185;BME280;18176;49.502;11.754;2022-08-01T10:52:15;96992.38;;;31.39;39.23
21185;BME280;18176;49.502;11.754;2022-08-01T10:56:15;96992.38;;;33.42;35.90
21185;BME280;18176;49.502;11.754;2022-08-01T11:00:19;96986.41;;;34.64;33.69
21185;BME280;18176;49.502;11.754;2022-08-01T11:04:17;96977.69;;;35.38;31.31
21185;BME280;18176;49.502;11.754;2022-08-01T11:08:22;96980.50;;;34.62;32.02
21185;BME280;18176;49.502;11.754;2022-08-01T11:12:19;96969.88;;;34.64;32.21
21185;BME280;18176;49.502;11.754;2022-08-01T11:16:28;96964.03;;;36.22;30.12
21185;BME280;18176;49.502;11.754;2022-08-01T11:20:31;96960.88;;;36.20;29.31
21185;BME280;18176;49.502;11.754;2022-08-01T11:29:15;96972.69;;;38.12;26.62
21185;BME280;18176;49.502;11.754;2022-08-01T11:37:37;96968.75;;;36.39;28.46
21185;BME280;18176;49.502;11.754;2022-08-01T11:41:35;96960.81;;;35.53;29.63
21185;BME280;18176;49.502;11.754;2022-08-01T11:45:49;96967.94;;;36.49;28.02
21185;BME280;18176;49.502;11.754;2022-08-01T11:49:48;96963.75;;;34.99;30.15
21185;BME280;18176;49.502;11.754;2022-08-01T11:53:51;96933.00;;;34.83;30.47
21185;BME280;18176;49.502;11.754;2022-08-01T11:58:05;96957.69;;;36.60;28.03
21185;BME280;18176;49.502;11.754;2022-08-01T12:02:31;96934.59;;;37.78;26.99
21185;BME280;18176;49.502;11.754;2022-08-01T12:06:29;96951.16;;;37.20;26.98
21185;BME280;18176;49.502;11.754;2022-08-01T12:10:33;96947.91;;;34.71;30.57
21185;BME280;18176;49.502;11.754;2022-08-01T12:14:56;96942.81;;;34.12;31.81
21185;BME280;18176;49.502;11.754;2022-08-01T12:18:53;96957.06;;;33.80;31.94
21185;BME280;18176;49.502;11.754;2022-08-01T12:22:54;96963.69;;;32.73;33.52
21185;BME280;18176;49.502;11.754;2022-08-01T12:26:52;96958.16;;;31.49;35.36
21185;BME280;18176;49.502;11.754;2022-08-01T12:30:49;96953.16;;;30.93;35.51
21185;BME280;18176;49.502;11.754;2022-08-01T12:34:46;96934.44;;;32.28;34.38
21185;BME280;18176;49.502;11.754;2022-08-01T12:38:44;96939.78;;;33.06;33.44
21185;BME280;18176;49.502;11.754;2022-08-01T12:42:44;96957.22;;;32.88;33.95
21185;BME280;18176;49.502;11.754;2022-08-01T12:46:42;96947.50;;;31.66;35.64
21185;BME280;18176;49.502;11.754;2022-08-01T12:50:48;96943.66;;;31.93;35.52
21185;BME280;18176;49.502;11.754;2022-08-01T12:55:07;96921.44;;;33.14;33.71
21185;BME280;18176;49.502;11.754;2022-08-01T12:59:26;96941.16;;;36.32;29.69
21185;BME280;18176;49.502;11.754;2022-08-01T13:03:23;96938.72;;;36.70;28.69
21185;BME280;18176;49.502;11.754;2022-08-01T13:07:21;96928.72;;;37.11;28.18
21185;BME280;18176;49.502;11.754;2022-08-01T13:11:18;96932.88;;;35.90;29.70
21185;BME280;18176;49.502;11.754;2022-08-01T13:19:45;96947.53;;;33.34;33.11
21185;BME280;18176;49.502;11.754;2022-08-01T13:28:19;96954.94;;;34.62;31.90
21185;BME280;18176;49.502;11.754;2022-08-01T13:32:21;96933.00;;;34.86;31.27
21185;BME280;18176;49.502;11.754;2022-08-01T13:36:26;96920.97;;;36.63;29.94
21185;BME280;18176;49.502;11.754;2022-08-01T13:40:27;96930.19;;;37.91;27.00
21185;BME280;18176;49.502;11.754;2022-08-01T13:44:24;96912.53;;;37.02;27.88
21185;BME280;18176;49.502;11.754;2022-08-01T13:48:21;96916.34;;;35.62;28.95
21185;BME280;18176;49.502;11.754;2022-08-01T13:52:19;96910.44;;;36.02;29.27
21185;BME280;18176;49.502;11.754;2022-08-01T13:56:16;96896.66;;;35.84;28.82
21185;BME280;18176;49.502;11.754;2022-08-01T14:00:15;96908.75;;;35.06;29.59
21185;BME280;18176;49.502;11.754;2022-08-01T14:04:12;96901.16;;;34.10;31.39
21185;BME280;18176;49.502;11.754;2022-08-01T14:08:10;96891.72;;;34.93;30.74
21185;BME280;18176;49.502;11.754;2022-08-01T14:12:10;96907.50;;;36.83;29.14
21185;BME280;18176;49.502;11.754;2022-08-01T14:16:07;96913.22;;;37.89;26.40
21185;BME280;18176;49.502;11.754;2022-08-01T14:20:04;96896.59;;;37.38;26.42
21185;BME280;18176;49.502;11.754;2022-08-01T14:24:02;96919.03;;;36.57;28.38
21185;BME280;18176;49.502;11.754;2022-08-01T14:27:59;96912.78;;;36.21;28.55
21185;BME280;18176;49.502;11.754;2022-08-01T14:31:56;96910.13;;;37.15;28.70
21185;BME280;18176;49.502;11.754;2022-08-01T14:35:54;96919.91;;;35.80;28.79
21185;BME280;18176;49.502;11.754;2022-08-01T14:40:11;96913.06;;;34.28;31.10
21185;BME280;18176;49.502;11.754;2022-08-01T14:44:08;96920.63;;;34.48;30.72
21185;BME280;18176;49.502;11.754;2022-08-01T14:48:05;96907.22;;;35.37;29.65
21185;BME280;18176;49.502;11.754;2022-08-01T14:52:02;96911.56;;;36.29;28.27
21185;BME280;18176;49.502;11.754;2022-08-01T14:56:00;96906.66;;;37.62;26.80
21185;BME280;18176;49.502;11.754;2022-08-01T14:59:58;96903.91;;;36.97;26.80
21185;BME280;18176;49.502;11.754;2022-08-01T15:03:55;96899.88;;;37.12;26.29
21185;BME280;18176;49.502;11.754;2022-08-01T15:07:52;96897.44;;;36.06;27.64
21185;BME280;18176;49.502;11.754;2022-08-01T15:11:49;96914.88;;;37.11;26.79
21185;BME280;18176;49.502;11.754;2022-08-01T15:15:46;96895.41;;;38.35;26.03
21185;BME280;18176;49.502;11.754;2022-08-01T15:19:45;96893.41;;;37.36;25.74
21185;BME280;18176;49.502;11.754;2022-08-01T15:23:42;96904.84;;;36.58;26.94
21185;BME280;18176;49.502;11.754;2022-08-01T15:27:39;96910.38;;;36.51;26.95
21185;BME280;18176;49.502;11.754;2022-08-01T15:31:36;96917.09;;;35.55;27.48
21185;BME280;18176;49.502;11.754;2022-08-01T15:35:34;96919.22;;;34.07;29.57
21185;BME280;18176;49.502;11.754;2022-08-01T15:39:34;96926.34;;;32.65;31.49
21185;BME280;18176;49.502;11.754;2022-08-01T15:43:31;96906.41;;;32.41;32.15
21185;BME280;18176;49.502;11.754;2022-08-01T15:47:28;96933.63;;;32.27;32.46
21185;BME280;18176;49.502;11.754;2022-08-01T15:51:25;96931.31;;;32.89;32.26
21185;BME280;18176;49.502;11.754;2022-08-01T15:55:22;96919.78;;;32.46;32.95
21185;BME280;18176;49.502;11.754;2022-08-01T15:59:19;96921.91;;;32.30;33.62
21185;BME280;18176;49.502;11.754;2022-08-01T16:03:18;96903.66;;;33.81;32.17
21185;BME280;18176;49.502;11.754;2022-08-01T16:07:17;96912.97;;;34.93;30.52
21185;BME280;18176;49.502;11.754;2022-08-01T16:11:15;96908.06;;;35.86;29.92
21185;BME280;18176;49.502;11.754;2022-08-01T16:15:12;96907.97;;;36.68;28.82
21185;BME280;18176;49.502;11.754;2022-08-01T16:19:09;96924.44;;;36.92;28.08
21185;BME280;18176;49.502;11.754;2022-08-01T16:23:15;96911.97;;;36.45;28.39
21185;BME280;18176;49.502;11.754;2022-08-01T16:27:12;96902.53;;;35.51;29.22
21185;BME280;18176;49.502;11.754;2022-08-01T16:31:09;96914.84;;;34.68;30.79
21185;BME280;18176;49.502;11.754;2022-08-01T16:35:17;96914.25;;;33.79;32.32
21185;BME280;18176;49.502;11.754;2022-08-01T16:39:14;96914.09;;;34.74;31.75
21185;BME280;18176;49.502;11.754;2022-08-01T16:43:18;96895.78;;;34.34;32.14
21185;BME280;18176;49.502;11.754;2022-08-01T16:47:15;96898.56;;;34.38;32.23
21185;BME280;18176;49.502;11.754;2022-08-01T16:51:13;96910.91;;;33.56;33.31
21185;BME280;18176;49.502;11.754;2022-08-01T16:55:10;96916.38;;;32.83;35.08
21185;BME280;18176;49.502;11.754;2022-08-01T16:59:07;96899.63;;;31.83;37.08
21185;BME280;18176;49.502;11.754;2022-08-01T17:03:04;96910.38;;;31.69;37.04
21185;BME280;18176;49.502;11.754;2022-08-01T17:07:21;96914.03;;;32.25;36.35
21185;BME280;18176;49.502;11.754;2022-08-01T17:11:18;96914.75;;;32.22;36.36
21185;BME280;18176;49.502;11.754;2022-08-01T17:15:15;96913.59;;;31.97;36.71
21185;BME280;18176;49.502;11.754;2022-08-01T17:19:12;96905.97;;;31.42;37.26
21185;BME280;18176;49.502;11.754;2022-08-01T17:23:10;96896.06;;;30.92;38.52
21185;BME280;18176;49.502;11.754;2022-08-01T17:27:07;96915.25;;;30.38;39.23
21185;BME280;18176;49.502;11.754;2022-08-01T17:31:09;96911.06;;;29.94;40.07
21185;BME280;18176;49.502;11.754;2022-08-01T17:35:07;96922.97;;;29.54;41.09
21185;BME280;18176;49.502;11.754;2022-08-01T17:39:04;96925.34;;;29.12;41.88
21185;BME280;18176;49.502;11.754;2022-08-01T17:43:03;96934.03;;;28.87;42.47
21185;BME280;18176;49.502;11.754;2022-08-01T17:47:01;96936.19;;;28.81;42.15
21185;BME280;18176;49.502;11.754;2022-08-01T17:50:58;96944.63;;;29.04;42.52
21185;BME280;18176;49.502;11.754;2022-08-01T17:54:58;96945.63;;;29.11;41.96
21185;BME280;18176;49.502;11.754;2022-08-01T17:58:55;96944.94;;;28.87;42.59
21185;BME280;18176;49.502;11.754;2022-08-01T18:02:52;96936.16;;;28.53;43.17
21185;BME280;18176;49.502;11.754;2022-08-01T18:06:51;96951.75;;;28.29;43.93
21185;BME280;18176;49.502;11.754;2022-08-01T18:10:56;96947.09;;;27.93;45.02
21185;BME280;18176;49.502;11.754;2022-08-01T18:14:53;96951.88;;;27.84;45.24
21185;BME280;18176;49.502;11.754;2022-08-01T18:18:52;96952.06;;;27.55;46.45
21185;BME280;18176;49.502;11.754;2022-08-01T18:22:49;96959.94;;;27.36;46.95
21185;BME280;18176;49.502;11.754;2022-08-01T18:26:51;96970.75;;;27.11;47.70
21185;BME280;18176;49.502;11.754;2022-08-01T18:30:49;96967.28;;;26.90;48.00
21185;BME280;18176;49.502;11.754;2022-08-01T18:34:46;96971.63;;;26.62;48.80
21185;BME280;18176;49.502;11.754;2022-08-01T18:38:43;96970.53;;;26.34;50.33
21185;BME280;18176;49.502;11.754;2022-08-01T18:42:41;96984.59;;;26.07;51.65
21185;BME280;18176;49.502;11.754;2022-08-01T18:46:39;96982.16;;;25.85;51.31
21185;BME280;18176;49.502;11.754;2022-08-01T18:50:36;96976.69;;;25.55;52.13
21185;BME280;18176;49.502;11.754;2022-08-01T18:54:33;96985.16;;;25.45;53.13
21185;BME280;18176;49.502;11.754;2022-08-01T18:58:30;96982.31;;;25.25;53.51
21185;BME280;18176;49.502;11.754;2022-08-01T19:02:27;97003.06;;;25.21;53.56
21185;BME280;18176;49.502;11.754;2022-08-01T19:06:25;97006.44;;;25.09;54.81
21185;BME280;18176;49.502;11.754;2022-08-01T19:10:24;97012.97;;;24.99;54.87
21185;BME280;18176;49.502;11.754;2022-08-01T19:14:21;97009.31;;;24.87;55.05
21185;BME280;18176;49.502;11.754;2022-08-01T19:18:18;97005.44;;;24.54;55.84
21185;BME280;18176;49.502;11.754;2022-08-01T19:22:15;97022.34;;;24.59;56.24
21185;BME280;18176;49.502;11.754;2022-08-01T19:26:15;97029.97;;;24.49;56.53
21185;BME280;18176;49.502;11.754;2022-08-01T19:30:17;97015.56;;;24.22;57.12
21185;BME280;18176;49.502;11.754;2022-08-01T19:34:17;97039.94;;;24.22;57.79
21185;BME280;18176;49.502;11.754;2022-08-01T19:38:16;97036.41;;;24.13;58.18
21185;BME280;18176;49.502;11.754;2022-08-01T19:42:14;97025.03;;;23.94;58.47
21185;BME280;18176;49.502;11.754;2022-08-01T19:46:11;97027.78;;;23.72;59.51
21185;BME280;18176;49.502;11.754;2022-08-01T19:50:13;97020.94;;;23.44;60.24
21185;BME280;18176;49.502;11.754;2022-08-01T19:54:12;97029.22;;;23.39;60.57
21185;BME280;18176;49.502;11.754;2022-08-01T19:58:10;97044.97;;;23.23;60.64
21185;BME280;18176;49.502;11.754;2022-08-01T20:02:24;97041.22;;;23.11;62.00
21185;BME280;18176;49.502;11.754;2022-08-01T20:06:22;97035.94;;;23.05;62.26
21185;BME280;18176;49.502;11.754;2022-08-01T20:10:22;97048.97;;;23.03;62.31
21185;BME280;18176;49.502;11.754;2022-08-01T20:14:22;97046.38;;;22.98;62.51
21185;BME280;18176;49.502;11.754;2022-08-01T20:18:20;97042.19;;;22.92;63.03
21185;BME280;18176;49.502;11.754;2022-08-01T20:22:23;97039.72;;;22.82;63.48
21185;BME280;18176;49.502;11.754;2022-08-01T20:26:23;97042.03;;;22.75;64.28
21185;BME280;18176;49.502;11.754;2022-08-01T20:30:23;97028.97;;;22.55;64.57
21185;BME280;18176;49.502;11.754;2022-08-01T20:34:23;97038.47;;;22.53;65.15
21185;BME280;18176;49.502;11.754;2022-08-01T20:38:25;97045.28;;;22.50;65.09
21185;BME280;18176;49.502;11.754;2022-08-01T20:42:27;97053.09;;;22.38;66.12
21185;BME280;18176;49.502;11.754;2022-08-01T20:46:26;97048.31;;;22.35;66.62
21185;BME280;18176;49.502;11.754;2022-08-01T20:50:24;97057.50;;;22.34;67.00
21185;BME280;18176;49.502;11.754;2022-08-01T20:54:50;97041.72;;;22.27;67.59
21185;BME280;18176;49.502;11.754;2022-08-01T21:03:17;97046.22;;;22.18;67.80
21185;BME280;18176;49.502;11.754;2022-08-01T21:11:22;97073.31;;;22.13;68.29
21185;BME280;18176;49.502;11.754;2022-08-01T21:15:58;97086.47;;;22.15;68.90
21185;BME280;18176;49.502;11.754;2022-08-01T21:20:18;97080.09;;;22.11;69.94
21185;BME280;18176;49.502;11.754;2022-08-01T21:24:17;97078.88;;;22.03;69.78
21185;BME280;18176;49.502;11.754;2022-08-01T21:28:14;97061.06;;;21.75;70.11
21185;BME280;18176;49.502;11.754;2022-08-01T21:32:14;97089.78;;;21.85;70.44
21185;BME280;18176;49.502;11.754;2022-08-01T21:36:13;97098.50;;;21.77;70.72